Time;durP1;ratioP1;P1;durP2;ratioP2;P2;SDS_P1;SDS_P2;PMS_P1;PMS_P2;Temp;Humidity;BMP_temperature;BMP_pressure;BME280_temperature;BME280_humidity;BME280_pressure;Samples;Min_cycle;Max_cycle;Signal;HPM_P1;HPM_P2
2022/12/09 00:00:31;;;;;;;13.00;9.87;;;1.90;47.50;;;;;;20973;6777;117225;-81
2022/12/09 00:03:06;;;;;;;10.90;9.33;;;1.80;47.80;;;;;;20958;6736;117290;-81
2022/12/09 00:05:42;;;;;;;13.03;10.23;;;1.60;48.10;;;;;;20892;6736;117402;-81
2022/12/09 00:08:21;;;;;;;11.90;10.60;;;1.50;48.40;;;;;;20931;6738;117270;-81
2022/12/09 00:10:54;;;;;;;13.70;12.40;;;1.50;48.70;;;;;;20791;6721;275826;-82
2022/12/09 00:13:31;;;;;;;13.67;12.37;;;2.20;48.30;;;;;;20791;6721;276696;-85
2022/12/09 00:16:08;;;;;;;14.03;12.73;;;2.20;48.30;;;;;;20679;6721;306428;-84
2022/12/09 00:18:46;;;;;;;13.43;10.73;;;2.60;47.20;;;;;;20897;6750;116379;-82
2022/12/09 00:21:19;;;;;;;14.13;12.83;;;2.60;47.00;;;;;;20646;6769;306300;-82
2022/12/09 00:23:56;;;;;;;12.70;11.23;;;2.60;47.40;;;;;;20854;6781;67718;-81
2022/12/09 00:26:31;;;;;;;11.53;10.20;;;2.50;46.70;;;;;;20652;6771;118222;-81
2022/12/09 00:29:12;;;;;;;10.77;9.57;;;2.20;47.10;;;;;;20834;6770;118729;-81
2022/12/09 00:31:42;;;;;;;13.40;12.20;;;2.00;47.70;;;;;;20692;6753;276882;-81
2022/12/09 00:34:18;;;;;;;13.27;12.07;;;2.10;47.90;;;;;;20683;6741;276305;-81
2022/12/09 00:36:55;;;;;;;11.40;10.30;;;2.40;47.90;;;;;;20705;6828;118111;-81
2022/12/09 00:39:30;;;;;;;11.63;10.53;;;2.40;47.70;;;;;;20974;6736;117191;-81
2022/12/09 00:42:06;;;;;;;14.17;12.87;;;2.10;48.00;;;;;;20746;6742;277010;-81
2022/12/09 00:44:42;;;;;;;13.70;12.40;;;2.20;48.00;;;;;;20714;6742;277300;-81
2022/12/09 00:47:17;;;;;;;13.43;12.23;;;2.50;47.50;;;;;;20693;6747;276404;-81
2022/12/09 00:49:54;;;;;;;13.13;11.93;;;2.80;47.00;;;;;;20800;6737;277442;-81
2022/12/09 00:52:30;;;;;;;11.20;10.07;;;2.90;46.30;;;;;;20973;6722;120673;-81
2022/12/09 00:55:06;;;;;;;10.70;9.80;;;2.70;46.40;;;;;;20854;6756;117653;-81
2022/12/09 00:57:41;;;;;;;12.30;11.03;;;2.40;47.10;;;;;;20967;6729;117354;-81
2022/12/09 01:00:18;;;;;;;10.90;9.70;;;2.10;47.70;;;;;;20854;6756;118426;-81
2022/12/09 01:02:58;;;;;;;12.00;10.07;;;1.80;48.00;;;;;;20888;6759;116368;-81
2022/12/09 01:05:31;;;;;;;13.47;12.20;;;1.60;48.30;;;;;;20648;6757;278133;-81
2022/12/09 01:08:07;;;;;;;11.93;10.83;;;1.70;48.00;;;;;;20978;6733;117503;-81
2022/12/09 01:10:44;;;;;;;11.30;10.13;;;1.70;47.70;;;;;;20976;6730;117274;-81
2022/12/09 01:13:27;;;;;;;11.57;10.23;;;1.50;47.90;;;;;;20984;6730;120159;-81
2022/12/09 01:15:59;;;;;;;10.60;9.50;;;1.30;48.10;;;;;;20833;6730;117200;-81
2022/12/09 01:18:35;;;;;;;9.53;8.63;;;1.10;48.40;;;;;;20971;6730;120165;-81
2022/12/09 01:21:10;;;;;;;10.00;8.57;;;0.90;48.50;;;;;;20990;6730;117246;-81
2022/12/09 01:23:46;;;;;;;10.90;9.83;;;0.80;48.80;;;;;;20987;6730;116850;-81
2022/12/09 01:26:24;;;;;;;9.83;8.83;;;0.70;49.00;;;;;;20818;6730;117160;-81
2022/12/09 01:28:59;;;;;;;10.23;9.03;;;0.70;49.40;;;;;;21013;6715;117199;-81
2022/12/09 01:31:38;;;;;;;11.87;10.77;;;0.60;49.60;;;;;;20756;6730;305989;-81
2022/12/09 01:34:10;;;;;;;11.67;10.70;;;0.90;49.50;;;;;;20768;6730;276449;-81
2022/12/09 01:36:51;;;;;;;11.17;10.17;;;1.40;48.70;;;;;;20858;6715;116747;-81
2022/12/09 01:39:22;;;;;;;10.87;9.83;;;1.50;48.50;;;;;;20970;6734;117160;-81
2022/12/09 01:42:02;;;;;;;13.00;10.90;;;1.30;48.60;;;;;;20922;6749;116871;-81
2022/12/09 01:44:43;;;;;;;14.50;13.20;;;1.10;48.90;;;;;;20676;6751;306463;-80
2022/12/09 01:47:17;;;;;;;13.67;12.47;;;1.60;49.00;;;;;;20752;6736;305337;-81
2022/12/09 01:49:54;;;;;;;13.70;12.50;;;1.60;48.40;;;;;;20763;6736;304540;-81
2022/12/09 01:52:29;;;;;;;13.30;12.20;;;1.90;47.60;;;;;;20729;6739;321548;-80
2022/12/09 01:55:12;;;;;;;10.90;9.80;;;2.10;47.30;;;;;;20936;6736;116229;-81
2022/12/09 01:57:42;;;;;;;13.07;11.88;;;1.90;47.20;;;;;;20710;6736;277124;-81
2022/12/09 02:00:18;;;;;;;12.67;11.30;;;1.80;47.60;;;;;;20933;6771;118650;-81
2022/12/09 02:02:53;;;;;;;14.17;12.90;;;1.60;47.50;;;;;;20711;6746;293904;-82
2022/12/09 02:05:29;;;;;;;12.00;10.90;;;1.60;47.60;;;;;;20893;6747;117966;-81
2022/12/09 02:08:05;;;;;;;10.50;9.50;;;1.10;47.90;;;;;;20874;6808;116602;-81
2022/12/09 02:11:04;;;;;;;12.03;10.30;;;1.10;47.80;;;;;;20862;6761;118334;-81
2022/12/09 02:13:59;;;;;;;13.80;12.50;;;0.90;48.40;;;;;;20654;6771;306495;-81
2022/12/09 02:16:44;;;;;;;14.35;13.05;;;1.00;48.50;;;;;;20350;6872;279136;-81
2022/12/09 02:19:28;;;;;;;14.13;12.83;;;1.70;47.70;;;;;;20627;6772;277853;-81
2022/12/09 02:22:05;;;;;;;11.57;10.47;;;1.60;47.60;;;;;;20890;6757;116865;-80
2022/12/09 02:24:40;;;;;;;12.57;10.30;;;1.50;47.60;;;;;;21009;6714;116481;-80
2022/12/09 02:27:16;;;;;;;11.20;9.63;;;1.10;47.90;;;;;;21059;6715;116578;-80
2022/12/09 02:30:14;;;;;;;10.60;9.30;;;0.90;48.50;;;;;;21041;6715;117208;-80
2022/12/09 02:33:10;;;;;;;10.90;9.80;;;0.60;48.90;;;;;;20950;6801;117736;-82
2022/12/09 02:35:49;;;;;;;14.00;12.70;;;0.50;49.40;;;;;;20738;6733;295577;-80
2022/12/09 02:38:24;;;;;;;10.27;9.37;;;0.70;49.30;;;;;;20968;6730;143997;-80
2022/12/09 02:41:07;;;;;;;11.13;10.10;;;0.80;49.00;;;;;;20975;6730;117720;-83
2022/12/09 02:43:43;;;;;;;14.27;12.90;;;0.80;48.90;;;;;;20803;6720;307981;-82
2022/12/09 02:46:25;;;;;;;13.77;12.57;;;0.70;48.80;;;;;;20654;6715;338791;-81
2022/12/09 02:49:05;;;;;;;14.37;13.00;;;1.40;47.00;;;;;;20746;6741;307266;-80
2022/12/09 02:51:42;;;;;;;14.27;12.97;;;1.60;47.40;;;;;;20688;6753;277897;-81
2022/12/09 02:54:24;;;;;;;14.75;13.38;;;1.70;46.60;;;;;;20690;6753;317798;-82
2022/12/09 02:56:55;;;;;;;12.77;11.50;;;1.70;46.60;;;;;;20627;6811;117845;-80
2022/12/09 02:59:31;;;;;;;10.37;9.47;;;1.50;46.80;;;;;;20805;6776;117949;-79
2022/12/09 03:02:14;;;;;;;10.87;9.80;;;0.90;48.30;;;;;;20969;6728;117324;-80
2022/12/09 03:05:22;;;;;;;11.33;10.23;;;0.80;48.20;;;;;;20889;6743;118446;-81
2022/12/09 03:08:01;;;;;;;10.97;9.87;;;0.70;48.70;;;;;;20872;6772;118175;-80
2022/12/09 03:10:54;;;;;;;10.53;9.57;;;0.50;49.10;;;;;;20948;6733;116779;-80
2022/12/09 03:13:36;;;;;;;12.60;11.52;;;0.40;49.30;;;;;;20596;6811;336542;-80
2022/12/09 03:16:28;;;;;;;12.27;11.27;;;0.60;49.30;;;;;;20629;6729;279936;-82
2022/12/09 03:19:04;;;;;;;13.55;12.25;;;1.10;49.00;;;;;;20707;6744;309419;-80
2022/12/09 03:21:47;;;;;;;9.77;8.97;;;1.40;47.80;;;;;;20897;6749;117449;-80
2022/12/09 03:24:23;;;;;;;13.00;11.80;;;1.40;48.20;;;;;;20749;6725;307388;-80
2022/12/09 03:26:59;;;;;;;10.50;9.70;;;1.40;48.20;;;;;;20942;6733;118794;-80
2022/12/09 03:29:34;;;;;;;9.87;8.97;;;1.30;48.30;;;;;;20861;6765;119262;-80
2022/12/09 03:32:14;;;;;;;10.03;9.10;;;1.10;48.70;;;;;;20873;6757;119249;-82
2022/12/09 03:34:47;;;;;;;11.33;9.90;;;0.90;49.20;;;;;;20911;6745;117534;-79
2022/12/09 03:37:23;;;;;;;13.57;12.37;;;1.00;49.40;;;;;;20718;6737;307035;-79
2022/12/09 03:39:59;;;;;;;10.63;9.73;;;1.00;49.40;;;;;;20881;6749;118937;-79
2022/12/09 03:42:38;;;;;;;13.40;12.37;;;1.00;48.90;;;;;;20703;6736;307543;-80
2022/12/09 03:45:14;;;;;;;13.80;12.60;;;1.20;48.60;;;;;;20659;6751;308663;-80
2022/12/09 03:47:49;;;;;;;11.20;10.07;;;1.60;47.90;;;;;;20919;6745;117675;-80
2022/12/09 03:50:25;;;;;;;11.33;10.13;;;1.50;47.80;;;;;;20909;6745;117574;-79
2022/12/09 03:53:04;;;;;;;14.10;12.80;;;1.20;48.10;;;;;;20677;6796;307528;-79
2022/12/09 03:55:59;;;;;;;18.77;17.27;;;1.30;48.30;;;;;;20619;6796;280804;-80
2022/12/09 03:58:37;;;;;;;17.00;15.70;;;1.60;47.70;;;;;;20899;6753;119633;-80
2022/12/09 04:01:20;;;;;;;13.90;12.53;;;1.50;47.60;;;;;;20962;6753;117306;-80
2022/12/09 04:03:49;;;;;;;13.57;12.47;;;1.20;48.20;;;;;;20713;6793;276355;-80
2022/12/09 04:06:25;;;;;;;13.13;12.00;;;1.30;48.40;;;;;;20551;6753;296175;-79
2022/12/09 04:09:02;;;;;;;12.70;11.20;;;1.60;47.60;;;;;;20699;6795;306913;-79
2022/12/09 04:11:37;;;;;;;9.10;8.40;;;1.90;46.90;;;;;;20978;6731;117277;-79
2022/12/09 04:14:16;;;;;;;9.13;8.17;;;1.70;46.80;;;;;;20939;6786;117020;-80
2022/12/09 04:16:49;;;;;;;9.47;8.67;;;1.40;47.40;;;;;;20558;6739;279427;-79
2022/12/09 04:19:24;;;;;;;8.50;7.70;;;1.40;47.70;;;;;;20901;6746;116804;-79
2022/12/09 04:22:01;;;;;;;7.03;6.43;;;1.30;47.60;;;;;;20976;6721;117915;-78
2022/12/09 04:24:36;;;;;;;9.10;8.50;;;1.10;48.00;;;;;;20676;6742;276875;-79
2022/12/09 04:27:12;;;;;;;11.23;10.33;;;1.20;48.50;;;;;;20739;6783;276654;-77
2022/12/09 04:29:48;;;;;;;11.87;10.87;;;1.60;48.10;;;;;;20724;6751;278526;-75
2022/12/09 04:32:25;;;;;;;11.30;10.30;;;2.20;48.00;;;;;;20716;6732;309845;-80
2022/12/09 04:35:01;;;;;;;10.95;10.05;;;2.10;47.30;;;;;;20763;6710;308001;-75
2022/12/09 04:37:39;;;;;;;10.48;9.68;;;2.30;46.50;;;;;;20757;6725;305906;-76
2022/12/09 04:40:13;;;;;;;9.50;8.73;;;2.10;46.10;;;;;;20922;6740;117018;-76
2022/12/09 04:42:49;;;;;;;8.87;8.17;;;2.10;46.10;;;;;;20801;6769;116272;-76
2022/12/09 04:45:24;;;;;;;10.37;9.67;;;1.70;46.70;;;;;;20561;6764;288445;-75
2022/12/09 04:48:00;;;;;;;9.73;8.83;;;1.70;46.90;;;;;;20905;6750;116971;-76
2022/12/09 04:50:35;;;;;;;11.00;10.10;;;1.60;47.00;;;;;;20656;6750;306284;-79
2022/12/09 04:53:11;;;;;;;10.93;10.13;;;1.60;47.50;;;;;;20672;6750;308164;-78
2022/12/09 04:55:47;;;;;;;10.40;9.40;;;1.90;47.50;;;;;;20837;6745;117216;-75
2022/12/09 04:58:22;;;;;;;9.60;8.67;;;1.80;47.40;;;;;;20974;6715;118047;-76
2022/12/09 05:00:58;;;;;;;10.23;9.20;;;1.50;47.70;;;;;;20995;6715;117096;-75
2022/12/09 05:03:33;;;;;;;9.40;8.50;;;1.30;48.20;;;;;;20996;6715;118013;-77
2022/12/09 05:06:09;;;;;;;11.37;10.47;;;1.10;48.50;;;;;;20631;6715;309967;-75
2022/12/09 05:08:45;;;;;;;9.50;8.60;;;1.20;48.90;;;;;;21004;6715;117674;-76
2022/12/09 05:11:24;;;;;;;11.50;10.57;;;1.30;48.80;;;;;;20781;6715;308284;-76
2022/12/09 05:13:56;;;;;;;9.40;8.50;;;1.40;48.90;;;;;;20996;6715;118762;-76
2022/12/09 05:16:31;;;;;;;10.70;9.80;;;1.50;48.80;;;;;;20609;6715;279216;-76
2022/12/09 05:19:07;;;;;;;8.97;8.17;;;1.60;48.80;;;;;;20999;6715;118039;-75
2022/12/09 05:21:49;;;;;;;11.33;10.33;;;1.60;48.50;;;;;;20731;6732;276690;-73
2022/12/09 05:24:24;;;;;;;11.07;10.15;;;1.70;48.10;;;;;;20673;6730;335580;-74
2022/12/09 05:27:54;;;;;;;;;;;;;;;;;;;;;
2022/12/09 05:29:44;;;;;;;11.60;10.63;;;1.90;47.80;;;;;;20420;6785;312930;-76
2022/12/09 05:32:21;;;;;;;11.77;9.63;;;1.90;47.70;;;;;;20905;6732;118211;-77
2022/12/09 05:35:00;;;;;;;9.63;8.80;;;1.70;47.60;;;;;;20905;6729;118444;-76
2022/12/09 05:37:41;;;;;;;13.00;10.87;;;1.40;48.00;;;;;;20938;6729;117937;-77
2022/12/09 05:40:14;;;;;;;11.07;9.20;;;1.10;48.50;;;;;;20616;6729;118032;-75
2022/12/09 05:42:51;;;;;;;9.43;8.40;;;0.90;48.90;;;;;;20919;6786;118154;-76
2022/12/09 05:45:27;;;;;;;11.90;10.80;;;0.80;49.30;;;;;;20648;6730;324710;-75
2022/12/09 05:48:04;;;;;;;12.67;10.30;;;0.90;49.60;;;;;;20924;6730;117314;-76
2022/12/09 05:50:43;;;;;;;10.33;9.33;;;1.00;49.40;;;;;;20882;6737;118734;-76
2022/12/09 05:53:20;;;;;;;12.33;11.23;;;0.90;49.60;;;;;;20693;6733;306807;-75
2022/12/09 05:55:59;;;;;;;12.80;11.63;;;1.10;49.50;;;;;;20599;6733;309833;-77
2022/12/09 05:58:37;;;;;;;11.00;10.00;;;1.50;49.10;;;;;;20910;6728;120903;-76
2022/12/09 06:01:14;;;;;;;14.27;11.53;;;1.60;49.00;;;;;;20949;6730;120166;-75
2022/12/09 06:03:50;;;;;;;22.00;14.83;;;1.40;49.30;;;;;;20942;6730;119533;-75
2022/12/09 06:06:31;;;;;;;18.02;15.90;;;1.20;49.60;;;;;;20523;6730;338744;-76
2022/12/09 06:09:10;;;;;;;15.67;13.97;;;1.40;49.70;;;;;;20933;6730;116972;-75
2022/12/09 06:11:44;;;;;;;14.43;13.13;;;1.50;49.60;;;;;;20747;6720;275952;-75
2022/12/09 06:14:22;;;;;;;10.97;10.00;;;1.80;49.40;;;;;;20724;6720;277039;-74
2022/12/09 06:17:02;;;;;;;10.83;9.93;;;2.10;48.60;;;;;;20484;6801;280828;-77
2022/12/09 06:19:40;;;;;;;10.83;9.83;;;2.40;48.30;;;;;;20927;6730;119310;-74
2022/12/09 06:22:17;;;;;;;11.20;10.20;;;2.40;48.30;;;;;;20919;6730;118174;-76
2022/12/09 06:24:55;;;;;;;14.00;12.60;;;2.10;48.70;;;;;;20573;6786;280909;-77
2022/12/09 06:27:35;;;;;;;11.93;10.70;;;2.10;48.40;;;;;;20986;6715;117928;-76
2022/12/09 06:30:13;;;;;;;13.93;12.70;;;2.10;48.40;;;;;;20753;6715;308740;-76
2022/12/09 06:32:53;;;;;;;14.27;12.80;;;2.20;48.10;;;;;;20827;6617;306906;-74
2022/12/09 06:35:25;;;;;;;10.80;9.80;;;2.50;47.60;;;;;;20853;6730;118448;-74
2022/12/09 06:38:00;;;;;;;8.90;8.00;;;2.40;47.70;;;;;;20949;6729;118052;-76
2022/12/09 06:40:39;;;;;;;10.77;9.93;;;2.10;48.10;;;;;;20855;6617;310014;-93
2022/12/09 06:43:15;;;;;;;13.77;12.67;;;2.10;48.30;;;;;;20767;6715;276997;-87
2022/12/09 06:45:50;;;;;;;19.80;13.30;;;2.40;47.70;;;;;;20761;6729;276409;-86
2022/12/09 06:48:35;;;;;;;16.40;14.73;;;2.60;47.20;;;;;;20725;6729;304635;-84
2022/12/09 06:51:02;;;;;;;13.38;12.18;;;2.80;47.00;;;;;;20721;6729;337489;-85
2022/12/09 06:53:40;;;;;;;10.13;9.23;;;3.00;46.90;;;;;;21005;6715;117530;-85
2022/12/09 06:56:13;;;;;;;9.73;8.40;;;2.80;47.00;;;;;;20961;6730;118955;-84
2022/12/09 06:58:59;;;;;;;13.13;12.03;;;2.40;47.50;;;;;;20417;6793;276321;-84
2022/12/09 07:01:25;;;;;;;12.95;11.75;;;2.40;47.90;;;;;;20630;6730;336272;-84
2022/12/09 07:04:00;;;;;;;14.02;12.75;;;2.60;47.70;;;;;;20741;6730;335485;-87
2022/12/09 07:06:38;;;;;;;12.88;11.68;;;2.90;47.50;;;;;;20686;6735;337863;-83
2022/12/09 07:09:20;;;;;;;11.73;10.83;;;3.10;47.10;;;;;;20761;6730;278136;-84
2022/12/09 07:11:54;;;;;;;9.57;8.73;;;3.30;46.80;;;;;;20870;6730;117407;-85
2022/12/09 07:14:35;;;;;;;8.43;7.63;;;3.10;46.80;;;;;;20929;6730;116874;-83
2022/12/09 07:17:08;;;;;;;8.33;7.47;;;2.70;47.30;;;;;;20978;6730;116122;-83
2022/12/09 07:19:41;;;;;;;11.53;10.43;;;2.40;47.90;;;;;;20748;6730;305930;-85
2022/12/09 07:22:16;;;;;;;10.93;8.67;;;2.40;48.00;;;;;;20832;6715;118037;-83
2022/12/09 07:24:52;;;;;;;11.30;10.30;;;2.40;48.00;;;;;;20796;6715;325474;-83
2022/12/09 07:27:27;;;;;;;11.27;10.37;;;2.40;47.80;;;;;;20786;6720;277128;-86
2022/12/09 07:30:03;;;;;;;9.77;8.87;;;2.70;47.60;;;;;;20957;6730;117825;-85
2022/12/09 07:32:39;;;;;;;11.30;10.30;;;2.50;48.10;;;;;;20485;6808;279412;-86
2022/12/09 07:35:24;;;;;;;11.70;10.60;;;2.50;48.00;;;;;;20734;6733;307204;-85
2022/12/09 07:37:54;;;;;;;10.03;9.03;;;2.80;47.90;;;;;;20974;6730;116517;-87
2022/12/09 07:40:37;;;;;;;11.32;10.32;;;2.70;47.80;;;;;;20673;6786;335687;-86
2022/12/09 07:43:14;;;;;;;11.00;9.90;;;2.70;48.00;;;;;;20967;6730;117589;-86
2022/12/09 07:45:50;;;;;;;12.20;11.03;;;2.70;48.50;;;;;;20784;6730;305244;-85
2022/12/09 07:48:26;;;;;;;;;;;;;;;;;;;;;
2022/12/09 07:51:02;;;;;;;13.50;12.10;;;2.90;48.40;;;;;;20826;6747;117150;-86
2022/12/09 07:53:28;;;;;;;11.67;10.57;;;2.70;48.70;;;;;;21057;6714;118271;-86
2022/12/09 07:58:51;;;;;;;;;;;;;;;;;;;;;
2022/12/09 08:01:43;;;;;;;;;;;;;;;;;;;;;
2022/12/09 08:04:12;;;;;;;11.77;10.27;;;2.60;50.00;;;;;;20643;6729;67507;-85
2022/12/09 08:06:53;;;;;;;11.77;10.43;;;2.60;49.70;;;;;;20989;6729;118638;-87
2022/12/09 08:12:09;;;;;;;;;;;;;;;;;;;;;
2022/12/09 08:17:23;;;;;;;;;;;;;;;;;;;;;
2022/12/09 08:19:58;;;;;;;;;;;;;;;;;;;;;
2022/12/09 09:09:59;;;;;;;9.15;8.55;;;6.50;43.00;;;;;;20941;6521;288430;-92
2022/12/09 09:12:21;;;;;;;8.60;8.00;;;6.50;42.80;;;;;;20824;6814;122773;-92
2022/12/09 09:14:47;;;;;;;8.73;8.00;;;6.30;43.40;;;;;;20764;6799;121406;-92
2022/12/09 09:17:13;;;;;;;9.50;8.73;;;6.00;44.20;;;;;;20482;6863;309078;-92
2022/12/09 09:19:38;;;;;;;9.43;8.73;;;6.00;44.00;;;;;;20479;6857;332899;-92
2022/12/09 09:22:04;;;;;;;7.95;7.35;;;6.20;43.50;;;;;;20694;6864;119334;-92
2022/12/09 09:24:30;;;;;;;9.27;8.57;;;6.10;44.10;;;;;;20484;6857;340688;-92
2022/12/09 09:26:56;;;;;;;9.17;8.43;;;6.10;44.00;;;;;;20692;6864;119566;-91
2022/12/09 09:29:21;;;;;;;9.48;8.80;;;6.00;44.20;;;;;;20506;6858;311228;-92
2022/12/09 09:31:48;;;;;;;8.68;7.97;;;6.00;44.00;;;;;;20718;6855;117605;-91
2022/12/09 09:34:12;;;;;;;9.00;8.20;;;5.90;44.30;;;;;;20718;6857;117080;-91
2022/12/09 09:36:38;;;;;;;8.63;7.93;;;5.80;44.90;;;;;;20730;6848;120286;-89
2022/12/09 09:39:05;;;;;;;10.53;9.73;;;5.60;45.30;;;;;;20477;6865;341478;-92
2022/12/09 09:41:50;;;;;;;9.03;8.37;;;5.60;44.90;;;;;;20694;6865;117229;-91
2022/12/09 09:44:19;;;;;;;10.77;9.77;;;5.70;45.10;;;;;;20722;6848;117721;-90
2022/12/09 09:46:45;;;;;;;11.47;10.47;;;5.60;45.40;;;;;;20493;6854;310834;-92
2022/12/09 09:49:10;;;;;;;10.47;9.37;;;5.60;44.40;;;;;;20721;6854;119644;-93
2022/12/09 09:51:37;;;;;;;12.07;10.97;;;5.80;43.50;;;;;;20438;6849;280185;-92
2022/12/09 09:54:03;;;;;;;11.73;10.83;;;6.00;43.30;;;;;;20493;6854;307764;-92
2022/12/09 09:56:44;;;;;;;10.47;9.57;;;6.00;43.20;;;;;;20647;6864;120359;-92
2022/12/09 09:59:17;;;;;;;10.43;9.53;;;5.90;43.40;;;;;;20722;6848;117251;-92
2022/12/09 10:01:43;;;;;;;9.00;8.10;;;5.70;44.10;;;;;;20737;6848;117360;-92
2022/12/09 10:04:20;;;;;;;11.83;10.93;;;5.40;44.40;;;;;;20426;6858;281288;-92
2022/12/09 10:06:59;;;;;;;11.07;10.00;;;5.60;44.20;;;;;;20722;6848;117822;-91
2022/12/09 10:09:30;;;;;;;12.27;11.03;;;5.50;44.30;;;;;;20694;6849;117782;-91
2022/12/09 10:11:57;;;;;;;11.73;10.67;;;5.40;44.70;;;;;;20692;6841;118249;-90
2022/12/09 10:14:53;;;;;;;12.43;11.32;;;5.20;45.00;;;;;;20410;6841;307458;-91
2022/12/09 10:17:26;;;;;;;10.23;9.37;;;5.40;44.80;;;;;;20742;6852;119414;-92
2022/12/09 10:19:51;;;;;;;12.50;11.17;;;5.40;44.70;;;;;;20734;6839;117870;-92
2022/12/09 10:22:17;;;;;;;11.90;10.97;;;5.20;45.10;;;;;;20618;6620;278538;-86
2022/12/09 10:24:55;;;;;;;10.50;9.53;;;5.40;45.20;;;;;;20885;6744;117587;-86
2022/12/09 10:27:44;;;;;;;10.20;9.33;;;5.60;45.40;;;;;;20927;6744;117298;-85
2022/12/09 10:30:20;;;;;;;11.17;10.23;;;5.50;45.70;;;;;;20440;6801;277801;-86
2022/12/09 10:33:05;;;;;;;11.23;10.27;;;5.80;45.20;;;;;;20690;6759;293381;-86
2022/12/09 10:35:31;;;;;;;12.30;10.23;;;6.20;44.50;;;;;;20891;6741;116783;-88
2022/12/09 10:38:13;;;;;;;11.43;10.43;;;6.20;44.50;;;;;;20880;6749;117771;-88
2022/12/09 10:40:59;;;;;;;10.93;9.93;;;6.10;44.80;;;;;;20749;6734;116642;-88
2022/12/09 10:43:36;;;;;;;14.33;12.93;;;5.90;45.20;;;;;;20651;6758;307017;-88
2022/12/09 10:46:14;;;;;;;15.60;14.15;;;6.30;42.80;;;;;;20648;6735;307646;-91
2022/12/09 10:48:51;;;;;;;15.40;13.83;;;6.20;43.10;;;;;;20763;6784;120977;-90
2022/12/09 10:51:29;;;;;;;12.27;11.07;;;6.20;43.00;;;;;;20372;6775;67834;-86
2022/12/09 10:54:10;;;;;;;11.43;10.43;;;6.00;43.70;;;;;;20460;6775;71685;-86
2022/12/09 10:57:46;;;;;;;12.13;10.83;;;5.70;44.20;;;;;;20664;6776;117490;-86
2022/12/09 10:59:54;;;;;;;14.70;13.30;;;5.60;44.90;;;;;;20270;6776;333013;-86
2022/12/09 11:02:30;;;;;;;13.07;11.77;;;5.80;44.10;;;;;;20641;6770;118024;-90
2022/12/09 11:05:26;;;;;;;15.30;11.73;;;5.70;44.10;;;;;;20867;6823;117230;-88
2022/12/09 11:08:11;;;;;;;;;;;;;;;;;;;;;
2022/12/09 11:10:37;;;;;;;11.33;10.23;;;5.40;45.10;;;;;;20804;6751;120070;-86
2022/12/09 11:13:14;;;;;;;12.23;11.13;;;5.30;45.90;;;;;;20875;6750;119625;-86
2022/12/09 11:15:49;;;;;;;13.68;12.48;;;5.30;45.90;;;;;;20665;6748;280087;-85
2022/12/09 11:18:34;;;;;;;11.23;10.27;;;5.70;45.30;;;;;;20813;6777;117904;-86
2022/12/09 11:21:29;;;;;;;15.95;14.45;;;5.70;45.30;;;;;;20546;6764;279632;-85
2022/12/09 11:24:05;;;;;;;13.83;12.50;;;6.00;44.40;;;;;;20810;6761;117467;-87
2022/12/09 11:26:43;;;;;;;148.40;91.47;;;5.90;44.30;;;;;;20879;6794;119875;-86
2022/12/09 11:29:21;;;;;;;32.90;23.80;;;5.70;44.70;;;;;;20836;6763;117467;-87
2022/12/09 11:32:00;;;;;;;21.62;19.35;;;5.50;45.00;;;;;;20403;6782;343241;-85
2022/12/09 11:34:40;;;;;;;;;;;;;;;;;;;;;
2022/12/09 11:37:05;;;;;;;30.50;21.73;;;6.00;44.60;;;;;;20853;6746;117403;-85
2022/12/09 11:39:41;;;;;;;18.20;16.23;;;6.10;44.70;;;;;;20820;6761;118089;-88
2022/12/09 11:42:17;;;;;;;20.23;15.93;;;5.90;44.90;;;;;;20637;6775;117769;-85
2022/12/09 11:44:55;;;;;;;22.83;20.52;;;5.70;45.00;;;;;;20558;6795;337884;-86
2022/12/09 11:47:34;;;;;;;22.33;18.70;;;5.70;44.50;;;;;;20770;6782;117394;-87
2022/12/09 11:50:16;;;;;;;21.13;19.10;;;5.70;44.80;;;;;;20513;6790;311775;-86
2022/12/09 11:53:11;;;;;;;19.77;17.20;;;5.70;44.90;;;;;;20788;6784;119164;-85
2022/12/09 11:55:47;;;;;;;18.17;16.27;;;5.80;45.10;;;;;;20788;6780;116664;-85
2022/12/09 11:58:29;;;;;;;18.27;15.50;;;5.60;45.60;;;;;;20805;6770;121381;-85
2022/12/09 12:01:21;;;;;;;17.67;15.73;;;5.50;46.10;;;;;;20739;6770;118843;-85
2022/12/09 12:04:00;;;;;;;18.77;15.43;;;5.50;46.40;;;;;;20827;6767;117577;-86
2022/12/09 12:06:55;;;;;;;18.70;15.20;;;5.40;46.50;;;;;;20808;6760;117499;-85
2022/12/09 12:09:48;;;;;;;18.85;17.05;;;5.30;46.40;;;;;;20685;6742;339924;-84
2022/12/09 12:12:46;;;;;;;15.87;14.30;;;5.50;45.80;;;;;;20607;6786;117322;-83
2022/12/09 12:15:21;;;;;;;16.30;14.60;;;5.50;45.80;;;;;;20882;6753;117310;-84
2022/12/09 12:17:57;;;;;;;15.97;14.00;;;5.40;45.90;;;;;;20864;6762;118049;-88
2022/12/09 12:20:33;;;;;;;18.20;16.30;;;5.40;46.20;;;;;;20599;6767;340986;-87
2022/12/09 12:23:19;;;;;;;15.67;14.07;;;5.40;46.20;;;;;;20303;6791;125413;-93
2022/12/09 12:26:15;;;;;;;20.07;15.67;;;5.30;46.50;;;;;;20782;6832;117997;-85
2022/12/09 12:29:23;;;;;;;19.13;17.23;;;5.30;46.50;;;;;;20540;6794;278500;-86
2022/12/09 12:32:14;;;;;;;19.30;17.30;;;5.60;45.90;;;;;;19471;7116;318443;-86
2022/12/09 12:35:06;;;;;;;21.30;19.30;;;5.90;45.40;;;;;;20001;6807;277751;-86
2022/12/09 12:38:04;;;;;;;18.02;16.37;;;6.20;44.70;;;;;;20603;6751;338795;-85
2022/12/09 12:40:52;;;;;;;18.05;16.35;;;6.50;44.30;;;;;;20653;6739;306944;-87
2022/12/09 12:47:01;;;;;;;16.93;13.67;;;6.40;44.20;;;;;;20871;6763;116539;-87
2022/12/09 12:49:41;;;;;;;16.23;14.63;;;5.90;45.00;;;;;;20376;6779;278873;-85
2022/12/09 12:52:27;;;;;;;18.65;16.85;;;6.00;45.40;;;;;;20165;6776;335239;-86
2022/12/09 12:55:16;;;;;;;20.43;15.40;;;6.30;45.00;;;;;;20702;6813;117694;-85
2022/12/09 12:58:11;;;;;;;;;;;;;;;;;;;;;
2022/12/09 16:52:46;;;;;;;27.70;19.80;;;6.50;48.20;;;;;;21489;6514;90266;-86
2022/12/09 16:55:15;;;;;;;25.27;19.00;;;6.20;49.10;;;;;;20896;6802;117057;-86
2022/12/09 16:57:41;;;;;;;24.80;18.13;;;5.80;49.00;;;;;;20831;6818;121879;-87
2022/12/09 17:00:12;;;;;;;21.40;16.77;;;5.40;49.70;;;;;;20900;6797;116363;-87
2022/12/09 17:02:37;;;;;;;21.00;18.80;;;5.20;50.20;;;;;;20427;6877;310136;-87
2022/12/09 17:05:03;;;;;;;21.93;19.83;;;5.30;50.80;;;;;;20491;6862;288466;-86
2022/12/09 17:07:28;;;;;;;23.20;19.17;;;5.50;50.60;;;;;;20677;6862;117199;-87
2022/12/09 17:09:54;;;;;;;21.23;18.73;;;5.40;50.40;;;;;;20713;6856;120687;-86
2022/12/09 17:12:20;;;;;;;25.00;22.70;;;5.20;50.70;;;;;;20454;6869;307620;-86
2022/12/09 17:14:45;;;;;;;22.87;20.65;;;5.20;51.00;;;;;;20489;6863;338345;-86
2022/12/09 17:17:11;;;;;;;18.93;16.80;;;5.50;50.90;;;;;;20673;6873;117974;-86
2022/12/09 17:19:36;;;;;;;17.40;15.60;;;5.40;50.70;;;;;;20676;6873;117557;-86
2022/12/09 17:22:02;;;;;;;16.92;15.02;;;5.20;50.90;;;;;;20646;6873;118895;-87
2022/12/09 17:24:29;;;;;;;16.83;15.02;;;4.90;51.00;;;;;;20666;6869;117666;-87
2022/12/09 17:26:55;;;;;;;21.43;19.43;;;4.80;51.90;;;;;;20467;6867;309606;-87
2022/12/09 17:29:22;;;;;;;20.95;18.83;;;4.80;51.90;;;;;;20514;6869;308792;-87
2022/12/09 17:31:50;;;;;;;19.70;16.43;;;5.10;51.70;;;;;;20694;6867;117652;-87
2022/12/09 17:34:13;;;;;;;18.30;15.93;;;5.10;51.40;;;;;;20677;6867;118851;-86
2022/12/09 17:36:39;;;;;;;20.00;18.20;;;4.90;51.70;;;;;;20459;6867;324393;-87
2022/12/09 17:39:06;;;;;;;17.60;15.73;;;5.00;51.90;;;;;;20693;6867;117434;-89
2022/12/09 17:41:31;;;;;;;19.30;17.57;;;5.00;51.60;;;;;;20472;6867;308060;-89
2022/12/09 17:43:57;;;;;;;19.17;17.27;;;5.10;51.70;;;;;;20480;6867;314886;-89
2022/12/09 17:46:23;;;;;;;20.47;18.37;;;5.40;51.30;;;;;;20676;6867;122842;-88
2022/12/09 17:48:49;;;;;;;17.40;15.50;;;5.20;51.20;;;;;;20687;6867;120701;-87
2022/12/09 17:51:16;;;;;;;17.97;14.93;;;5.20;51.20;;;;;;20684;6867;119014;-86
2022/12/09 17:53:40;;;;;;;16.73;14.87;;;5.00;51.40;;;;;;20695;6867;117621;-89
2022/12/09 17:56:06;;;;;;;20.73;18.77;;;4.80;51.70;;;;;;20494;6863;279379;-87
2022/12/09 17:58:31;;;;;;;21.10;18.77;;;4.90;52.00;;;;;;20399;6872;308421;-86
2022/12/09 18:00:57;;;;;;;19.53;17.67;;;5.20;51.60;;;;;;20505;6857;306937;-89
2022/12/09 18:03:23;;;;;;;20.30;18.40;;;5.50;51.30;;;;;;20487;6862;340825;-89
2022/12/09 18:05:49;;;;;;;20.42;18.42;;;5.80;50.50;;;;;;20478;6872;306041;-88
2022/12/09 18:08:14;;;;;;;20.43;16.20;;;5.80;50.50;;;;;;20681;6872;116599;-88
2022/12/09 18:10:41;;;;;;;17.65;15.77;;;5.70;50.50;;;;;;20671;6876;118176;-88
2022/12/09 18:13:06;;;;;;;19.87;17.92;;;5.40;51.00;;;;;;20449;6876;330199;-86
2022/12/09 18:15:32;;;;;;;18.05;16.35;;;5.30;51.20;;;;;;20492;6861;341286;-86
2022/12/09 18:17:58;;;;;;;15.40;13.80;;;5.50;51.60;;;;;;20655;6876;117698;-86
2022/12/09 18:20:23;;;;;;;17.10;15.40;;;5.40;50.90;;;;;;20428;6876;310357;-87